Time;durP1;ratioP1;P1;durP2;ratioP2;P2;SDS_P1;SDS_P2;PMS_P1;PMS_P2;Temp;Humidity;BMP_temperature;BMP_pressure;BME280_temperature;BME280_humidity;BME280_pressure;Samples;Min_cycle;Max_cycle;Signal;HPM_P1;HPM_P2
2023/08/16 00:02:16;;;;;;;8.32;4.22;;;;;;;;;;4880817;29;20399;-64
2023/08/16 00:04:44;;;;;;;9.27;4.07;;;;;;;;;;4895368;29;20033;-67
2023/08/16 00:07:10;;;;;;;7.28;4.30;;;;;;;;;;4895377;29;20051;-64
2023/08/16 00:09:35;;;;;;;7.20;4.20;;;;;;;;;;4896911;29;20119;-63
2023/08/16 00:12:01;;;;;;;8.77;4.32;;;;;;;;;;4892769;29;20041;-64
2023/08/16 00:14:26;;;;;;;8.25;4.32;;;;;;;;;;4896344;29;20037;-63
2023/08/16 00:16:51;;;;;;;9.23;4.88;;;;;;;;;;4893443;29;20041;-66
2023/08/16 00:19:17;;;;;;;6.90;4.25;;;;;;;;;;4894238;29;20093;-64
2023/08/16 00:21:43;;;;;;;7.13;4.32;;;;;;;;;;4895788;29;20072;-67
2023/08/16 00:24:09;;;;;;;9.40;5.00;;;;;;;;;;4894516;29;20037;-64
2023/08/16 00:26:34;;;;;;;6.13;4.40;;;;;;;;;;4895853;29;20089;-64
2023/08/16 00:29:00;;;;;;;8.68;4.55;;;;;;;;;;4894973;29;20040;-64
2023/08/16 00:31:34;;;;;;;7.07;4.45;;;;;;;;;;4895672;29;20043;-64
2023/08/16 00:34:00;;;;;;;6.25;4.40;;;;;;;;;;4894827;29;21017;-63
2023/08/16 00:36:25;;;;;;;6.28;4.40;;;;;;;;;;4896385;29;20051;-64
2023/08/16 00:38:50;;;;;;;9.77;4.65;;;;;;;;;;4892099;29;20447;-65
2023/08/16 00:41:16;;;;;;;8.02;4.47;;;;;;;;;;4895854;29;20470;-64
2023/08/16 00:43:44;;;;;;;10.27;4.30;;;;;;;;;;4895387;29;20028;-63
2023/08/16 00:46:13;;;;;;;7.18;4.13;;;;;;;;;;4877272;29;20040;-65
2023/08/16 00:48:41;;;;;;;8.68;4.32;;;;;;;;;;4863198;29;20040;-64
2023/08/16 00:51:08;;;;;;;6.30;4.03;;;;;;;;;;4878035;29;20052;-64
2023/08/16 00:53:34;;;;;;;6.55;4.00;;;;;;;;;;4894839;29;20107;-64
2023/08/16 00:56:01;;;;;;;9.57;4.10;;;;;;;;;;4894477;29;20196;-64
2023/08/16 00:58:28;;;;;;;8.23;4.00;;;;;;;;;;4895104;29;20060;-64
2023/08/16 01:00:53;;;;;;;5.20;3.85;;;;;;;;;;4897199;29;20044;-64
2023/08/16 01:03:19;;;;;;;7.63;3.90;;;;;;;;;;4898971;29;20036;-64
2023/08/16 01:05:44;;;;;;;11.23;4.70;;;;;;;;;;4882109;29;20045;-67
2023/08/16 01:08:10;;;;;;;8.45;4.50;;;;;;;;;;4897615;29;20043;-64
2023/08/16 01:10:53;;;;;;;8.25;4.60;;;;;;;;;;4897028;29;20050;-64
2023/08/16 01:13:43;;;;;;;8.77;4.55;;;;;;;;;;4898070;29;20398;-64
2023/08/16 01:16:09;;;;;;;8.45;4.45;;;;;;;;;;4886803;29;20044;-64
2023/08/16 01:18:37;;;;;;;6.55;4.18;;;;;;;;;;4883181;29;20087;-64
2023/08/16 01:21:06;;;;;;;7.22;4.32;;;;;;;;;;4897288;29;20044;-64
2023/08/16 01:24:06;;;;;;;7.05;4.70;;;;;;;;;;4897648;29;20126;-63
2023/08/16 01:26:36;;;;;;;8.03;4.07;;;;;;;;;;4898332;29;20474;-63
2023/08/16 01:29:04;;;;;;;9.07;4.97;;;;;;;;;;4897609;29;20040;-64
2023/08/16 01:31:31;;;;;;;7.68;4.45;;;;;;;;;;4879276;29;20071;-64
2023/08/16 01:33:57;;;;;;;7.03;4.57;;;;;;;;;;4880542;29;20524;-63
2023/08/16 01:36:23;;;;;;;6.30;4.38;;;;;;;;;;4895074;29;20390;-63
2023/08/16 01:38:48;;;;;;;8.57;4.82;;;;;;;;;;4898312;29;20040;-67
2023/08/16 01:41:23;;;;;;;8.05;5.05;;;;;;;;;;4896714;29;20048;-66
2023/08/16 01:43:49;;;;;;;8.13;5.20;;;;;;;;;;4884168;29;20466;-67
2023/08/16 01:46:15;;;;;;;12.43;5.57;;;;;;;;;;4897654;29;20040;-63
2023/08/16 01:48:43;;;;;;;7.20;4.72;;;;;;;;;;4898236;29;20088;-63
2023/08/16 01:51:09;;;;;;;10.40;5.03;;;;;;;;;;4881295;29;20278;-63
2023/08/16 01:53:35;;;;;;;8.25;4.82;;;;;;;;;;4881905;29;20594;-63
2023/08/16 01:56:00;;;;;;;8.02;4.90;;;;;;;;;;4896002;29;20106;-63
2023/08/16 01:58:26;;;;;;;9.35;4.93;;;;;;;;;;4882319;29;20450;-63
2023/08/16 02:00:51;;;;;;;14.07;5.88;;;;;;;;;;4896529;29;20517;-67
2023/08/16 02:03:17;;;;;;;9.35;4.88;;;;;;;;;;4897094;29;20113;-64
2023/08/16 02:05:42;;;;;;;7.25;4.70;;;;;;;;;;4898432;29;20033;-63
2023/08/16 02:08:10;;;;;;;8.98;5.18;;;;;;;;;;4896481;29;20537;-63
2023/08/16 02:10:36;;;;;;;9.35;5.22;;;;;;;;;;4888849;29;20088;-63
2023/08/16 02:13:01;;;;;;;9.57;5.03;;;;;;;;;;4883845;29;20043;-64
2023/08/16 02:15:27;;;;;;;9.18;5.30;;;;;;;;;;4881353;29;20123;-64
2023/08/16 02:17:52;;;;;;;11.02;5.13;;;;;;;;;;4897382;29;20443;-67
2023/08/16 02:20:17;;;;;;;6.88;5.32;;;;;;;;;;4896794;29;20044;-64
2023/08/16 02:22:43;;;;;;;9.52;5.60;;;;;;;;;;4898111;29;20438;-64
2023/08/16 02:25:09;;;;;;;10.70;5.70;;;;;;;;;;4894634;29;20532;-64
2023/08/16 02:27:34;;;;;;;9.85;5.60;;;;;;;;;;4896621;29;20490;-64
2023/08/16 02:30:00;;;;;;;9.57;5.50;;;;;;;;;;4889051;29;20040;-64
2023/08/16 02:32:25;;;;;;;9.65;5.22;;;;;;;;;;4894303;29;20035;-63
2023/08/16 02:34:50;;;;;;;8.68;5.30;;;;;;;;;;4896357;29;20036;-67
2023/08/16 02:37:17;;;;;;;8.38;5.03;;;;;;;;;;4896523;29;20126;-64
2023/08/16 02:39:43;;;;;;;9.73;5.05;;;;;;;;;;4896496;29;20036;-63
2023/08/16 02:42:08;;;;;;;8.40;5.38;;;;;;;;;;4895641;29;20084;-63
2023/08/16 02:44:33;;;;;;;8.07;5.05;;;;;;;;;;4895747;29;20039;-63
2023/08/16 02:46:59;;;;;;;7.40;5.30;;;;;;;;;;4896463;29;20096;-64
2023/08/16 02:49:24;;;;;;;8.40;5.60;;;;;;;;;;4897539;29;20071;-63
2023/08/16 02:51:49;;;;;;;8.23;5.50;;;;;;;;;;4897195;29;20489;-64
2023/08/16 02:54:15;;;;;;;11.15;5.07;;;;;;;;;;4880118;29;20036;-63
2023/08/16 02:56:40;;;;;;;7.75;5.28;;;;;;;;;;4898042;29;20032;-64
2023/08/16 02:59:12;;;;;;;9.98;5.07;;;;;;;;;;4895845;29;20490;-63
2023/08/16 03:01:37;;;;;;;7.90;5.07;;;;;;;;;;4894230;29;20036;-65
2023/08/16 03:04:03;;;;;;;9.02;5.40;;;;;;;;;;4895502;29;20032;-65
2023/08/16 03:06:29;;;;;;;7.47;5.22;;;;;;;;;;4893263;29;20397;-64
2023/08/16 03:08:54;;;;;;;9.57;5.03;;;;;;;;;;4896198;29;20040;-66
2023/08/16 03:11:19;;;;;;;8.18;5.40;;;;;;;;;;4895754;29;20079;-64
2023/08/16 03:13:45;;;;;;;9.57;5.30;;;;;;;;;;4897131;29;20043;-65
2023/08/16 03:16:10;;;;;;;8.20;5.10;;;;;;;;;;4896392;29;20039;-64
2023/08/16 03:18:35;;;;;;;8.35;6.00;;;;;;;;;;4893937;29;20040;-63
2023/08/16 03:21:01;;;;;;;7.22;4.78;;;;;;;;;;4894653;29;20044;-64
2023/08/16 03:23:26;;;;;;;8.20;5.35;;;;;;;;;;4895443;29;20039;-64
2023/08/16 03:25:52;;;;;;;7.95;4.85;;;;;;;;;;4895700;29;20438;-65
2023/08/16 03:28:17;;;;;;;7.20;5.13;;;;;;;;;;4894515;29;20115;-64
2023/08/16 03:30:42;;;;;;;9.30;5.13;;;;;;;;;;4880772;29;20119;-64
2023/08/16 03:33:08;;;;;;;8.10;5.43;;;;;;;;;;4896804;29;20525;-65
2023/08/16 03:35:33;;;;;;;9.38;5.60;;;;;;;;;;4897943;29;20039;-60
2023/08/16 03:37:58;;;;;;;8.82;5.20;;;;;;;;;;4895917;29;20100;-62
2023/08/16 03:40:24;;;;;;;9.07;5.35;;;;;;;;;;4899148;29;20470;-60
2023/08/16 03:42:49;;;;;;;9.23;5.15;;;;;;;;;;4898160;29;20048;-59
2023/08/16 03:45:15;;;;;;;9.40;5.97;;;;;;;;;;4895822;29;20295;-61
2023/08/16 03:47:40;;;;;;;10.27;5.93;;;;;;;;;;4898635;29;20033;-59
2023/08/16 03:50:06;;;;;;;8.30;5.28;;;;;;;;;;4897801;29;20033;-60
2023/08/16 03:52:34;;;;;;;10.13;5.75;;;;;;;;;;4898270;29;20024;-59
2023/08/16 03:54:59;;;;;;;10.75;6.18;;;;;;;;;;4897389;29;20036;-61
2023/08/16 03:57:24;;;;;;;9.43;5.97;;;;;;;;;;4895968;29;20041;-60
2023/08/16 03:59:54;;;;;;;12.90;6.10;;;;;;;;;;4897677;29;20036;-60
2023/08/16 04:02:20;;;;;;;9.00;5.78;;;;;;;;;;4896366;29;20052;-60
2023/08/16 04:04:45;;;;;;;10.00;6.15;;;;;;;;;;4880414;29;20028;-60
2023/08/16 04:07:11;;;;;;;9.07;5.82;;;;;;;;;;4896537;29;20029;-61
2023/08/16 04:09:36;;;;;;;8.88;5.70;;;;;;;;;;4897006;29;20555;-60
2023/08/16 04:12:02;;;;;;;11.27;6.13;;;;;;;;;;4894997;29;20359;-61
2023/08/16 04:14:27;;;;;;;9.13;6.25;;;;;;;;;;4897425;29;20036;-60
2023/08/16 04:16:53;;;;;;;11.10;6.97;;;;;;;;;;4897049;29;20025;-60
2023/08/16 04:19:18;;;;;;;10.85;6.18;;;;;;;;;;4896211;29;20608;-60
2023/08/16 04:21:43;;;;;;;10.75;6.82;;;;;;;;;;4895362;29;20036;-60
2023/08/16 04:24:09;;;;;;;10.55;6.38;;;;;;;;;;4879184;29;20063;-60
2023/08/16 04:26:34;;;;;;;10.00;6.63;;;;;;;;;;4894749;29;20497;-59
2023/08/16 04:29:03;;;;;;;11.85;6.03;;;;;;;;;;4898505;29;20043;-61
2023/08/16 04:31:28;;;;;;;9.20;6.50;;;;;;;;;;4898323;29;20029;-60
2023/08/16 04:33:53;;;;;;;12.55;6.55;;;;;;;;;;4880693;29;20039;-59
2023/08/16 04:36:19;;;;;;;13.57;6.80;;;;;;;;;;4897108;29;20032;-59
2023/08/16 04:38:44;;;;;;;8.88;6.50;;;;;;;;;;4897357;29;20036;-60
2023/08/16 04:41:09;;;;;;;10.40;6.57;;;;;;;;;;4878477;29;20037;-59
2023/08/16 04:43:35;;;;;;;11.35;6.40;;;;;;;;;;4895785;29;20032;-59
2023/08/16 04:46:00;;;;;;;11.65;6.97;;;;;;;;;;4895785;29;20039;-61
2023/08/16 04:48:26;;;;;;;9.85;6.22;;;;;;;;;;4879755;29;20529;-59
2023/08/16 04:50:51;;;;;;;11.07;6.25;;;;;;;;;;4896814;29;20088;-59
2023/08/16 04:53:17;;;;;;;10.48;6.40;;;;;;;;;;4895969;29;20037;-59
2023/08/16 04:55:42;;;;;;;10.27;6.72;;;;;;;;;;4896575;29;20044;-59
2023/08/16 04:58:07;;;;;;;11.15;7.13;;;;;;;;;;4895214;29;20447;-60
2023/08/16 05:00:33;;;;;;;11.48;6.53;;;;;;;;;;4879750;29;20029;-59
2023/08/16 05:02:59;;;;;;;11.57;6.82;;;;;;;;;;4896329;29;20039;-60
2023/08/16 05:05:24;;;;;;;11.05;7.22;;;;;;;;;;4879517;29;20115;-60
2023/08/16 05:07:50;;;;;;;13.07;6.70;;;;;;;;;;4896642;29;20040;-59
2023/08/16 05:10:15;;;;;;;11.40;6.68;;;;;;;;;;4895775;29;20163;-59
2023/08/16 05:12:40;;;;;;;13.35;7.25;;;;;;;;;;4894718;29;20047;-59
2023/08/16 05:15:07;;;;;;;11.18;7.00;;;;;;;;;;4895284;29;20036;-60
2023/08/16 05:17:32;;;;;;;10.93;6.90;;;;;;;;;;4896726;29;20048;-59
2023/08/16 05:19:58;;;;;;;9.93;6.68;;;;;;;;;;4896605;29;20037;-59
2023/08/16 05:22:24;;;;;;;8.70;6.00;;;;;;;;;;4894705;29;20120;-59
2023/08/16 05:24:50;;;;;;;10.02;5.65;;;;;;;;;;4896381;29;20145;-59
2023/08/16 05:27:15;;;;;;;9.00;5.65;;;;;;;;;;4878844;29;20111;-59
2023/08/16 05:29:41;;;;;;;10.57;6.20;;;;;;;;;;4896164;29;20480;-59
2023/08/16 05:32:06;;;;;;;9.50;5.72;;;;;;;;;;4895516;29;20113;-60
2023/08/16 05:34:32;;;;;;;10.80;5.47;;;;;;;;;;4896722;29;20024;-60
2023/08/16 05:36:57;;;;;;;9.45;6.05;;;;;;;;;;4895160;29;20032;-59
2023/08/16 05:39:23;;;;;;;9.38;6.10;;;;;;;;;;4895431;29;20053;-59
2023/08/16 05:41:48;;;;;;;8.35;6.40;;;;;;;;;;4896331;29;20036;-59
2023/08/16 05:44:14;;;;;;;9.27;6.03;;;;;;;;;;4898162;29;20466;-59
2023/08/16 05:46:40;;;;;;;8.82;5.85;;;;;;;;;;4882964;29;20080;-59
2023/08/16 05:49:05;;;;;;;10.20;6.55;;;;;;;;;;4899002;29;20028;-60
2023/08/16 05:51:32;;;;;;;15.57;7.93;;;;;;;;;;4882997;29;20055;-59
2023/08/16 05:53:58;;;;;;;10.18;6.78;;;;;;;;;;4899664;29;20033;-59
2023/08/16 05:56:23;;;;;;;10.05;6.70;;;;;;;;;;4898486;29;20682;-59
2023/08/16 05:58:48;;;;;;;14.88;8.30;;;;;;;;;;4898708;29;20461;-60
2023/08/16 06:01:14;;;;;;;15.55;8.82;;;;;;;;;;4898897;29;20053;-61
2023/08/16 06:03:39;;;;;;;12.75;9.50;;;;;;;;;;4899366;29;20036;-61
2023/08/16 06:06:05;;;;;;;15.90;10.88;;;;;;;;;;4898676;29;20033;-61
2023/08/16 06:08:30;;;;;;;12.18;9.73;;;;;;;;;;4898794;29;20071;-61
2023/08/16 06:10:55;;;;;;;13.57;9.10;;;;;;;;;;4882461;29;20036;-60
2023/08/16 06:13:21;;;;;;;13.35;9.05;;;;;;;;;;4897581;29;20037;-61
2023/08/16 06:15:46;;;;;;;12.70;8.25;;;;;;;;;;4898385;29;20052;-61
2023/08/16 06:18:12;;;;;;;11.43;8.40;;;;;;;;;;4898265;29;20033;-61
2023/08/16 06:20:38;;;;;;;11.98;8.02;;;;;;;;;;4899109;29;20033;-61
2023/08/16 06:23:03;;;;;;;9.65;7.28;;;;;;;;;;4880611;29;20089;-61
2023/08/16 06:25:29;;;;;;;11.18;7.45;;;;;;;;;;4880444;29;20035;-60
2023/08/16 06:27:54;;;;;;;10.63;7.22;;;;;;;;;;4899690;29;20154;-62
2023/08/16 06:30:20;;;;;;;10.10;6.60;;;;;;;;;;4898889;29;20043;-62
2023/08/16 06:32:45;;;;;;;11.73;6.70;;;;;;;;;;4899216;29;20068;-62
2023/08/16 06:35:11;;;;;;;9.57;6.70;;;;;;;;;;4897931;29;20032;-60
2023/08/16 06:37:39;;;;;;;9.40;6.85;;;;;;;;;;4898603;29;20043;-61
2023/08/16 06:40:07;;;;;;;11.57;6.80;;;;;;;;;;4895791;29;20055;-62
2023/08/16 06:42:32;;;;;;;22.60;8.52;;;;;;;;;;4898331;29;20048;-61
2023/08/16 06:44:58;;;;;;;18.10;9.13;;;;;;;;;;4898586;29;20033;-62
2023/08/16 06:47:23;;;;;;;16.85;9.48;;;;;;;;;;4879723;29;20139;-61
2023/08/16 06:49:49;;;;;;;11.38;8.63;;;;;;;;;;4898557;29;20115;-60
2023/08/16 06:52:14;;;;;;;14.32;9.45;;;;;;;;;;4880780;29;20043;-62
2023/08/16 06:54:42;;;;;;;14.70;9.77;;;;;;;;;;4898429;29;20429;-62
2023/08/16 06:57:08;;;;;;;13.65;9.25;;;;;;;;;;4897227;29;20037;-60
2023/08/16 06:59:37;;;;;;;14.85;9.95;;;;;;;;;;4898251;29;20481;-61
2023/08/16 07:02:02;;;;;;;14.55;10.13;;;;;;;;;;4897460;29;20032;-62
2023/08/16 07:04:28;;;;;;;14.18;9.68;;;;;;;;;;4896955;29;20043;-62
2023/08/16 07:06:53;;;;;;;13.52;9.07;;;;;;;;;;4898429;29;20135;-61
2023/08/16 07:09:19;;;;;;;13.73;9.55;;;;;;;;;;4897167;29;20032;-60
2023/08/16 07:11:44;;;;;;;13.82;9.57;;;;;;;;;;4898012;29;20473;-61
2023/08/16 07:14:10;;;;;;;14.35;9.80;;;;;;;;;;4897346;29;20071;-60
2023/08/16 07:16:36;;;;;;;14.75;10.30;;;;;;;;;;4880323;29;20418;-61
2023/08/16 07:19:04;;;;;;;19.13;10.40;;;;;;;;;;4897958;29;20033;-62
2023/08/16 07:21:29;;;;;;;14.85;9.73;;;;;;;;;;4880073;29;20047;-61
2023/08/16 07:23:55;;;;;;;13.30;10.20;;;;;;;;;;4896948;29;20029;-64
2023/08/16 07:26:20;;;;;;;14.73;9.43;;;;;;;;;;4896892;29;20032;-61
2023/08/16 07:28:45;;;;;;;11.70;8.57;;;;;;;;;;4881313;29;20347;-61
2023/08/16 07:31:11;;;;;;;12.60;8.50;;;;;;;;;;4896855;29;20032;-61
2023/08/16 07:33:36;;;;;;;11.13;8.52;;;;;;;;;;4897383;29;20470;-61
2023/08/16 07:36:02;;;;;;;10.10;7.72;;;;;;;;;;4880813;29;20059;-62
2023/08/16 07:38:30;;;;;;;12.15;8.20;;;;;;;;;;4896236;29;20043;-61
2023/08/16 07:40:55;;;;;;;10.38;7.82;;;;;;;;;;4897156;29;20240;-61
2023/08/16 07:43:21;;;;;;;11.20;7.93;;;;;;;;;;4896674;29;20535;-60
2023/08/16 07:45:51;;;;;;;11.18;7.97;;;;;;;;;;4880660;29;20044;-61
2023/08/16 07:48:18;;;;;;;11.65;7.43;;;;;;;;;;4896482;29;20032;-62
2023/08/16 07:50:45;;;;;;;10.65;7.40;;;;;;;;;;4897317;29;20032;-61
2023/08/16 07:53:11;;;;;;;11.13;7.32;;;;;;;;;;4880119;29;20047;-61
2023/08/16 07:55:36;;;;;;;10.52;7.30;;;;;;;;;;4879055;29;20382;-62
2023/08/16 07:58:02;;;;;;;9.52;7.35;;;;;;;;;;4897068;29;20045;-62
2023/08/16 08:00:29;;;;;;;10.70;7.07;;;;;;;;;;4895573;29;20774;-62
2023/08/16 08:02:54;;;;;;;9.95;6.90;;;;;;;;;;4897480;29;20036;-62
2023/08/16 08:05:21;;;;;;;11.13;6.93;;;;;;;;;;4896117;29;20119;-62
2023/08/16 08:07:47;;;;;;;8.10;6.47;;;;;;;;;;4896536;29;20426;-62
2023/08/16 08:10:14;;;;;;;10.20;5.97;;;;;;;;;;4896403;29;20032;-61
2023/08/16 08:12:47;;;;;;;8.52;5.47;;;;;;;;;;4880423;29;20037;-61
2023/08/16 08:15:13;;;;;;;6.53;4.60;;;;;;;;;;4895490;29;20040;-61
2023/08/16 08:17:39;;;;;;;7.00;4.47;;;;;;;;;;4879944;29;20036;-60
2023/08/16 08:20:05;;;;;;;8.50;4.90;;;;;;;;;;4897114;29;20088;-61
2023/08/16 08:22:31;;;;;;;8.60;4.70;;;;;;;;;;4878164;29;20139;-60
2023/08/16 08:24:56;;;;;;;6.80;4.80;;;;;;;;;;4880019;29;20542;-60
2023/08/16 08:27:22;;;;;;;7.30;4.97;;;;;;;;;;4895886;29;20052;-61
2023/08/16 08:29:47;;;;;;;10.45;5.20;;;;;;;;;;4896656;29;20092;-59
2023/08/16 08:32:13;;;;;;;8.35;5.55;;;;;;;;;;4896289;29;20037;-59
2023/08/16 08:34:39;;;;;;;8.07;5.20;;;;;;;;;;4896833;29;20071;-61
2023/08/16 08:37:05;;;;;;;9.15;5.78;;;;;;;;;;4896787;29;20040;-61
2023/08/16 08:39:32;;;;;;;9.00;5.53;;;;;;;;;;4894249;29;20040;-60
2023/08/16 08:41:57;;;;;;;7.47;5.47;;;;;;;;;;4896923;29;20097;-59
2023/08/16 08:44:24;;;;;;;6.78;5.30;;;;;;;;;;4877432;29;20045;-60
2023/08/16 08:46:49;;;;;;;7.18;5.20;;;;;;;;;;4895982;29;20036;-59
2023/08/16 08:49:17;;;;;;;7.70;5.40;;;;;;;;;;4895898;29;20435;-60
2023/08/16 08:51:43;;;;;;;9.93;5.65;;;;;;;;;;4896698;29;20489;-60
2023/08/16 08:54:08;;;;;;;9.68;5.93;;;;;;;;;;4894300;29;20045;-59
2023/08/16 08:56:34;;;;;;;8.57;5.40;;;;;;;;;;4895592;29;20699;-59
2023/08/16 08:59:01;;;;;;;9.68;6.38;;;;;;;;;;4896184;29;20048;-59
2023/08/16 09:01:27;;;;;;;9.48;6.78;;;;;;;;;;4895815;29;20036;-59
2023/08/16 09:03:54;;;;;;;9.13;6.97;;;;;;;;;;4877311;29;20462;-59
2023/08/16 09:06:19;;;;;;;10.48;6.90;;;;;;;;;;4895544;29;20032;-59
2023/08/16 09:08:45;;;;;;;9.90;7.30;;;;;;;;;;4896464;29;20033;-59
2023/08/16 09:11:13;;;;;;;12.15;7.30;;;;;;;;;;4896521;29;20095;-59
2023/08/16 09:13:39;;;;;;;11.30;7.45;;;;;;;;;;4878410;29;20037;-60
2023/08/16 09:16:04;;;;;;;9.82;7.28;;;;;;;;;;4879336;29;20041;-60
2023/08/16 09:18:30;;;;;;;9.48;6.70;;;;;;;;;;4895981;29;20025;-60
2023/08/16 09:20:59;;;;;;;8.27;6.75;;;;;;;;;;4899404;29;20048;-60
2023/08/16 09:23:24;;;;;;;9.52;6.88;;;;;;;;;;4899149;29;20534;-60
2023/08/16 09:25:51;;;;;;;10.50;7.25;;;;;;;;;;4900085;29;20032;-61
2023/08/16 09:28:16;;;;;;;9.27;6.72;;;;;;;;;;4899338;29;20036;-61
2023/08/16 09:30:42;;;;;;;7.88;6.22;;;;;;;;;;4899896;29;20028;-60
2023/08/16 09:33:08;;;;;;;9.68;6.15;;;;;;;;;;4900354;29;20040;-60
2023/08/16 09:35:51;;;;;;;8.48;6.20;;;;;;;;;;4896433;29;20040;-60
2023/08/16 09:38:20;;;;;;;9.13;6.10;;;;;;;;;;4899321;29;20045;-60
2023/08/16 09:40:50;;;;;;;9.07;6.03;;;;;;;;;;4900175;29;20410;-60
2023/08/16 09:43:17;;;;;;;8.60;5.68;;;;;;;;;;4899728;29;20736;-59
2023/08/16 09:45:43;;;;;;;12.65;5.43;;;;;;;;;;4896282;29;20438;-60
2023/08/16 09:48:09;;;;;;;8.20;5.70;;;;;;;;;;4881889;29;20036;-60
2023/08/16 09:50:35;;;;;;;9.95;5.20;;;;;;;;;;4898738;29;20032;-58
2023/08/16 09:53:05;;;;;;;7.85;4.72;;;;;;;;;;4899590;29;20032;-59
2023/08/16 09:55:35;;;;;;;6.38;4.90;;;;;;;;;;4898807;29;20032;-59
2023/08/16 09:58:01;;;;;;;10.73;5.45;;;;;;;;;;4899362;29;20180;-59
2023/08/16 10:00:30;;;;;;;8.73;5.25;;;;;;;;;;4898621;29;20115;-59
2023/08/16 10:02:56;;;;;;;7.07;5.15;;;;;;;;;;4894730;29;20043;-61
2023/08/16 10:05:24;;;;;;;8.85;5.38;;;;;;;;;;4898568;29;20041;-60
2023/08/16 10:07:50;;;;;;;8.50;5.32;;;;;;;;;;4899053;29;20084;-60
2023/08/16 10:10:16;;;;;;;9.05;5.38;;;;;;;;;;4899214;29;20116;-59
2023/08/16 10:12:43;;;;;;;9.25;5.90;;;;;;;;;;4898374;29;20032;-60
2023/08/16 10:15:09;;;;;;;8.98;6.10;;;;;;;;;;4896656;29;20044;-60
2023/08/16 10:17:40;;;;;;;9.05;5.68;;;;;;;;;;4897476;29;20040;-60
2023/08/16 10:20:12;;;;;;;7.25;5.68;;;;;;;;;;4899196;29;20033;-60
2023/08/16 10:22:40;;;;;;;8.20;5.97;;;;;;;;;;4898003;29;20204;-59
2023/08/16 10:25:11;;;;;;;10.65;6.10;;;;;;;;;;4899035;29;20067;-60
2023/08/16 10:27:37;;;;;;;9.43;6.30;;;;;;;;;;4881829;29;20029;-60
2023/08/16 10:30:05;;;;;;;9.43;6.32;;;;;;;;;;4898470;29;20036;-60
2023/08/16 10:32:35;;;;;;;9.98;6.47;;;;;;;;;;4895496;29;20116;-60
2023/08/16 10:35:01;;;;;;;9.05;6.00;;;;;;;;;;4897446;29;20115;-60
2023/08/16 10:37:27;;;;;;;10.57;5.85;;;;;;;;;;4897024;29;20059;-60
2023/08/16 10:39:52;;;;;;;8.10;5.40;;;;;;;;;;4898641;29;20036;-59
2023/08/16 10:42:17;;;;;;;7.85;5.68;;;;;;;;;;4881864;29;20041;-59
2023/08/16 10:44:52;;;;;;;8.05;6.05;;;;;;;;;;4897909;29;20455;-60
2023/08/16 10:47:28;;;;;;;8.05;5.60;;;;;;;;;;4898541;29;20494;-60
2023/08/16 10:49:54;;;;;;;7.95;5.55;;;;;;;;;;4898316;29;20032;-60
2023/08/16 10:52:29;;;;;;;8.60;5.95;;;;;;;;;;4894796;29;20043;-60
2023/08/16 10:54:55;;;;;;;7.90;5.78;;;;;;;;;;4898469;29;20028;-60
2023/08/16 10:57:25;;;;;;;6.90;5.10;;;;;;;;;;4897630;29;20040;-60
2023/08/16 11:00:01;;;;;;;8.18;5.25;;;;;;;;;;4898599;29;20036;-60
2023/08/16 11:02:30;;;;;;;8.60;5.22;;;;;;;;;;4897568;29;20423;-60
2023/08/16 11:04:56;;;;;;;6.72;4.65;;;;;;;;;;4898302;29;20033;-60
2023/08/16 11:07:22;;;;;;;7.00;4.70;;;;;;;;;;4896486;29;20417;-60
2023/08/16 11:09:47;;;;;;;6.80;4.70;;;;;;;;;;4896020;29;20037;-60
2023/08/16 11:12:15;;;;;;;6.00;4.00;;;;;;;;;;4896246;29;20039;-60
2023/08/16 11:14:41;;;;;;;6.88;4.60;;;;;;;;;;4897238;29;20040;-60
2023/08/16 11:17:06;;;;;;;7.00;3.75;;;;;;;;;;4898045;29;20044;-60
2023/08/16 11:19:33;;;;;;;9.48;4.30;;;;;;;;;;4896852;29;20033;-60
2023/08/16 11:22:03;;;;;;;7.35;4.00;;;;;;;;;;4897897;29;20056;-60
2023/08/16 11:24:29;;;;;;;6.95;4.13;;;;;;;;;;4897068;29;20051;-60
2023/08/16 11:26:55;;;;;;;6.95;4.38;;;;;;;;;;4896418;29;20382;-60
2023/08/16 11:29:20;;;;;;;8.05;4.30;;;;;;;;;;4895618;29;20100;-60
2023/08/16 11:31:46;;;;;;;7.10;4.65;;;;;;;;;;4897131;29;20045;-60
2023/08/16 11:34:11;;;;;;;7.95;4.50;;;;;;;;;;4897753;29;20120;-60
2023/08/16 11:36:40;;;;;;;8.75;4.45;;;;;;;;;;4888298;29;20115;-60
2023/08/16 11:39:09;;;;;;;8.07;4.35;;;;;;;;;;4916471;29;20064;-60
2023/08/16 11:41:36;;;;;;;8.80;4.55;;;;;;;;;;4897267;29;20040;-61
2023/08/16 11:44:01;;;;;;;7.40;4.60;;;;;;;;;;4901917;29;20398;-61
2023/08/16 11:46:27;;;;;;;7.18;4.72;;;;;;;;;;4896490;29;20526;-61
2023/08/16 11:48:53;;;;;;;9.73;5.20;;;;;;;;;;4897378;29;20037;-61
2023/08/16 11:51:19;;;;;;;6.78;4.70;;;;;;;;;;4897350;29;20041;-60
2023/08/16 11:53:44;;;;;;;7.50;4.35;;;;;;;;;;4896703;29;20609;-60
2023/08/16 11:56:10;;;;;;;8.20;4.30;;;;;;;;;;4897752;29;20072;-60
2023/08/16 11:58:45;;;;;;;8.52;4.60;;;;;;;;;;4894159;29;20391;-61
2023/08/16 12:01:14;;;;;;;7.38;4.57;;;;;;;;;;4862489;29;20382;-60
2023/08/16 12:03:43;;;;;;;8.40;5.18;;;;;;;;;;4877692;29;20564;-60
2023/08/16 12:06:09;;;;;;;7.88;5.07;;;;;;;;;;4878670;29;20033;-59
2023/08/16 12:08:35;;;;;;;7.90;4.80;;;;;;;;;;4877507;29;20036;-59
2023/08/16 12:11:02;;;;;;;7.60;4.90;;;;;;;;;;4894231;29;20119;-60
2023/08/16 12:13:28;;;;;;;8.88;4.57;;;;;;;;;;4896002;29;20029;-60
2023/08/16 12:15:53;;;;;;;9.13;5.40;;;;;;;;;;4896744;29;20112;-60
2023/08/16 12:18:20;;;;;;;7.47;4.60;;;;;;;;;;4879803;29;20036;-61
2023/08/16 12:20:52;;;;;;;6.55;3.95;;;;;;;;;;4902274;29;20032;-60
2023/08/16 12:23:19;;;;;;;6.50;3.70;;;;;;;;;;4915775;29;20039;-60
2023/08/16 12:25:45;;;;;;;6.82;4.10;;;;;;;;;;4904352;29;20564;-60
2023/08/16 12:28:10;;;;;;;6.38;4.18;;;;;;;;;;4896995;29;20081;-60
2023/08/16 12:30:36;;;;;;;6.82;3.50;;;;;;;;;;4896047;29;20115;-60
2023/08/16 12:33:03;;;;;;;5.82;3.80;;;;;;;;;;4896874;29;20052;-60
2023/08/16 12:35:29;;;;;;;7.05;3.67;;;;;;;;;;4879241;29;20401;-61
2023/08/16 12:37:54;;;;;;;6.57;3.95;;;;;;;;;;4880049;29;20088;-61
2023/08/16 12:40:20;;;;;;;7.20;3.88;;;;;;;;;;4895501;29;20119;-60
2023/08/16 12:42:46;;;;;;;7.32;3.70;;;;;;;;;;4879148;29;20051;-60
2023/08/16 12:45:11;;;;;;;7.20;3.85;;;;;;;;;;4894576;29;20462;-60
2023/08/16 12:47:37;;;;;;;7.32;3.88;;;;;;;;;;4895902;29;20040;-60
2023/08/16 12:50:02;;;;;;;5.85;3.63;;;;;;;;;;4894426;29;20092;-60
2023/08/16 12:52:27;;;;;;;7.07;3.45;;;;;;;;;;4897367;29;20462;-60
2023/08/16 12:54:53;;;;;;;5.57;3.30;;;;;;;;;;4900074;29;20111;-60
2023/08/16 12:57:19;;;;;;;5.82;3.92;;;;;;;;;;4900140;29;20032;-60
2023/08/16 12:59:50;;;;;;;5.22;3.78;;;;;;;;;;4899637;29;20525;-60
2023/08/16 13:02:16;;;;;;;7.60;3.67;;;;;;;;;;4900409;29;20145;-60
2023/08/16 13:04:42;;;;;;;7.35;3.78;;;;;;;;;;4897775;29;20141;-62
2023/08/16 13:07:08;;;;;;;6.20;3.80;;;;;;;;;;4900448;29;20033;-60
2023/08/16 13:09:34;;;;;;;6.18;3.80;;;;;;;;;;4899284;29;20184;-60
2023/08/16 13:11:59;;;;;;;5.55;3.50;;;;;;;;;;4900100;29;20433;-59
2023/08/16 13:14:25;;;;;;;5.05;3.50;;;;;;;;;;4900238;29;20040;-61
2023/08/16 13:16:51;;;;;;;5.50;3.28;;;;;;;;;;4899324;29;20032;-60
2023/08/16 13:19:17;;;;;;;4.88;3.40;;;;;;;;;;4882502;29;20063;-61
2023/08/16 13:21:42;;;;;;;5.13;3.42;;;;;;;;;;4899336;29;20037;-60
2023/08/16 13:24:11;;;;;;;5.30;3.83;;;;;;;;;;4900289;29;20039;-61
2023/08/16 13:26:37;;;;;;;5.65;3.35;;;;;;;;;;4882428;29;20061;-59
2023/08/16 13:29:03;;;;;;;6.28;3.50;;;;;;;;;;4883145;29;20092;-60
2023/08/16 13:31:28;;;;;;;6.25;3.70;;;;;;;;;;4899668;29;20044;-60
2023/08/16 13:33:54;;;;;;;9.75;3.95;;;;;;;;;;4897710;29;20478;-60
2023/08/16 13:36:19;;;;;;;9.55;3.85;;;;;;;;;;4883972;29;20044;-61
2023/08/16 13:38:44;;;;;;;5.43;3.30;;;;;;;;;;4900552;29;20042;-60
2023/08/16 13:41:10;;;;;;;6.47;4.18;;;;;;;;;;4900698;29;20032;-61
2023/08/16 13:43:35;;;;;;;6.15;4.10;;;;;;;;;;4898691;29;20055;-60
2023/08/16 13:46:00;;;;;;;5.72;3.70;;;;;;;;;;4899752;29;20032;-61
2023/08/16 13:48:26;;;;;;;6.70;3.75;;;;;;;;;;4897506;29;20431;-60
2023/08/16 13:50:51;;;;;;;6.80;4.00;;;;;;;;;;4897281;29;20028;-60
2023/08/16 13:53:17;;;;;;;8.40;3.97;;;;;;;;;;4899599;29;20032;-59
2023/08/16 13:55:45;;;;;;;8.50;4.35;;;;;;;;;;4898728;29;20037;-59
2023/08/16 13:58:11;;;;;;;7.65;4.30;;;;;;;;;;4899440;29;20060;-60
2023/08/16 14:00:37;;;;;;;6.63;4.00;;;;;;;;;;4898196;29;20511;-61
2023/08/16 14:03:03;;;;;;;6.32;3.78;;;;;;;;;;4898477;29;20073;-59
2023/08/16 14:05:28;;;;;;;6.20;3.35;;;;;;;;;;4898647;29;20035;-59
2023/08/16 14:07:54;;;;;;;5.85;3.67;;;;;;;;;;4896478;29;20040;-60
2023/08/16 14:10:20;;;;;;;4.72;3.38;;;;;;;;;;4899149;29;20041;-61
2023/08/16 14:12:46;;;;;;;6.03;3.50;;;;;;;;;;4896708;29;20047;-61
2023/08/16 14:15:11;;;;;;;5.60;3.17;;;;;;;;;;4878213;29;20036;-60
2023/08/16 14:17:37;;;;;;;5.05;3.00;;;;;;;;;;4898643;29;20045;-60
2023/08/16 14:20:04;;;;;;;5.15;2.92;;;;;;;;;;4898740;29;20083;-61
2023/08/16 14:22:29;;;;;;;5.00;2.60;;;;;;;;;;4898963;29;20466;-61
2023/08/16 14:24:55;;;;;;;4.93;2.80;;;;;;;;;;4881311;29;20047;-61
2023/08/16 14:27:20;;;;;;;4.00;2.70;;;;;;;;;;4898759;29;20119;-61
2023/08/16 14:29:46;;;;;;;6.18;3.05;;;;;;;;;;4896125;29;20029;-60
2023/08/16 14:32:11;;;;;;;9.40;2.78;;;;;;;;;;4896815;29;20470;-60
2023/08/16 14:34:36;;;;;;;6.35;2.70;;;;;;;;;;4897914;29;20071;-61